createdAt,value
2023-05-17T00:01:35.916Z,96535.13
2023-05-17T00:04:04.003Z,96528.91
2023-05-17T00:06:32.772Z,96535.13
2023-05-17T00:09:00.962Z,96536.00
2023-05-17T00:11:30.436Z,96540.50
2023-05-17T00:13:58.474Z,96542.31
2023-05-17T00:16:26.577Z,96542.31
2023-05-17T00:18:54.718Z,96545.00
2023-05-17T00:21:22.899Z,96545.00
2023-05-17T00:23:50.900Z,96551.38
2023-05-17T00:26:19.089Z,96549.50
2023-05-17T00:28:48.765Z,96554.16
2023-05-17T00:31:16.901Z,96546.09
2023-05-17T00:33:46.583Z,96544.28
2023-05-17T00:36:14.681Z,96547.81
2023-05-17T00:38:42.709Z,96555.00
2023-05-17T00:41:11.740Z,96549.66
2023-05-17T00:43:39.825Z,96549.78
2023-05-17T00:46:09.286Z,96548.78
2023-05-17T00:48:37.519Z,96547.09
2023-05-17T00:51:06.518Z,96555.16
2023-05-17T00:53:36.553Z,96551.59
2023-05-17T00:56:05.342Z,96548.03
2023-05-17T00:58:34.036Z,96554.28
2023-05-17T01:01:02.158Z,96545.34
2023-05-17T01:03:31.734Z,96548.03
2023-05-17T01:06:00.020Z,96549.91
2023-05-17T01:08:28.690Z,96550.72
2023-05-17T01:10:59.825Z,96556.09
2023-05-17T01:13:31.191Z,96555.28
2023-05-17T01:16:03.737Z,96545.50
2023-05-17T01:18:36.287Z,96552.59
2023-05-17T01:21:04.668Z,96542.81
2023-05-17T01:23:37.883Z,96540.97
2023-05-17T01:26:09.268Z,96540.97
2023-05-17T01:28:39.162Z,96541.94
2023-05-17T01:31:07.255Z,96540.13
2023-05-17T01:33:35.337Z,96541.94
2023-05-17T01:36:03.516Z,96540.13
2023-05-17T01:38:31.642Z,96544.63
2023-05-17T01:41:02.946Z,96541.94
2023-05-17T01:43:33.163Z,96546.47
2023-05-17T01:46:08.454Z,96545.63
2023-05-17T01:48:37.985Z,96545.63
2023-05-17T01:51:06.281Z,96548.31
2023-05-17T01:53:37.421Z,96556.34
2023-05-17T01:56:10.449Z,96559.91
2023-05-17T01:58:43.343Z,96560.84
2023-05-17T02:01:12.839Z,96560.00
2023-05-17T02:03:41.073Z,96557.31
2023-05-17T02:06:09.405Z,96555.50
2023-05-17T02:08:37.490Z,96562.69
2023-05-17T02:11:05.524Z,96569.91
2023-05-17T02:13:33.731Z,96565.38
2023-05-17T02:16:02.073Z,96569.91
2023-05-17T02:18:32.923Z,96560.97
2023-05-17T02:21:01.181Z,96560.00
2023-05-17T02:23:29.237Z,96557.44
2023-05-17T02:25:57.295Z,96561.84
2023-05-17T02:28:25.337Z,96568.06
2023-05-17T02:30:53.488Z,96557.44
2023-05-17T02:33:21.663Z,96552.94
2023-05-17T02:35:52.103Z,96562.81
2023-05-17T02:38:20.871Z,96575.28
2023-05-17T02:40:48.924Z,96575.38
2023-05-17T02:43:16.986Z,96576.22
2023-05-17T02:45:45.112Z,96578.91
2023-05-17T02:48:14.477Z,96583.41
2023-05-17T02:50:42.626Z,96577.22
2023-05-17T02:53:12.103Z,96581.72
2023-05-17T02:55:40.353Z,96595.16
2023-05-17T02:58:08.398Z,96589.78
2023-05-17T03:00:36.533Z,96589.78
2023-05-17T03:03:04.686Z,96586.22
2023-05-17T03:05:34.860Z,96589.91
2023-05-17T03:08:02.994Z,96587.09
2023-05-17T03:10:32.827Z,96585.28
2023-05-17T03:13:01.149Z,96591.59
2023-05-17T03:15:33.322Z,96588.06
2023-05-17T03:18:01.567Z,96593.41
2023-05-17T03:20:30.090Z,96587.22
2023-05-17T03:22:58.215Z,96590.72
2023-05-17T03:25:26.645Z,96588.91
2023-05-17T03:27:56.381Z,96588.06
2023-05-17T03:30:24.499Z,96587.22
2023-05-17T03:32:54.152Z,96588.06
2023-05-17T03:35:22.847Z,96588.19
2023-05-17T03:37:55.163Z,96596.09
2023-05-17T03:40:23.820Z,96599.78
2023-05-17T03:42:51.957Z,96612.34
2023-05-17T03:45:22.253Z,96606.09
2023-05-17T03:47:50.558Z,96610.66
2023-05-17T03:50:18.766Z,96623.94
2023-05-17T03:52:46.881Z,96632.94
2023-05-17T03:55:14.913Z,96641.88
2023-05-17T03:57:43.059Z,96640.03
2023-05-17T04:00:13.156Z,96646.38
2023-05-17T04:02:45.596Z,96653.59
2023-05-17T04:05:14.178Z,96645.53
2023-05-17T04:07:44.571Z,96661.66
2023-05-17T04:10:14.223Z,96669.69
2023-05-17T04:12:42.473Z,96664.34
2023-05-17T04:15:11.433Z,96675.06
2023-05-17T04:17:41.400Z,96677.75
2023-05-17T04:20:13.043Z,96690.31
2023-05-17T04:22:41.835Z,96688.50
2023-05-17T04:25:12.161Z,96689.31
2023-05-17T04:27:40.937Z,96699.09
2023-05-17T04:30:10.885Z,96700.94
2023-05-17T04:32:39.862Z,96705.44
2023-05-17T04:35:09.087Z,96699.09
2023-05-17T04:37:40.442Z,96699.09
2023-05-17T04:40:18.932Z,96710.72
2023-05-17T04:42:48.778Z,96705.22
2023-05-17T04:45:17.763Z,96708.03
2023-05-17T04:47:46.282Z,96705.22
2023-05-17T04:50:16.061Z,96715.97
2023-05-17T04:52:45.660Z,96723.03
2023-05-17T04:55:13.901Z,96723.03
2023-05-17T04:57:42.097Z,96724.88
2023-05-17T05:00:14.176Z,96720.34
2023-05-17T05:02:46.698Z,96727.44
2023-05-17T05:05:15.060Z,96728.31
2023-05-17T05:07:46.435Z,96730.13
2023-05-17T05:10:14.865Z,96727.31
2023-05-17T05:12:44.835Z,96738.91
2023-05-17T05:15:13.635Z,96730.88
2023-05-17T05:17:44.962Z,96734.41
2023-05-17T05:20:15.624Z,96741.47
2023-05-17T05:22:46.054Z,96734.28
2023-05-17T05:25:15.033Z,96725.38
2023-05-17T05:27:43.097Z,96725.38
2023-05-17T05:30:12.920Z,96736.69
2023-05-17T05:32:44.046Z,96732.22
2023-05-17T05:35:12.197Z,96729.47
2023-05-17T05:37:40.333Z,96734.53
2023-05-17T05:40:10.978Z,96740.53
2023-05-17T05:42:39.740Z,96748.44
2023-05-17T05:45:09.430Z,96745.56
2023-05-17T05:47:37.696Z,96735.94
2023-05-17T05:50:07.052Z,96746.22
2023-05-17T05:52:36.572Z,96746.00
2023-05-17T05:55:05.276Z,96752.09
2023-05-17T05:57:35.824Z,96748.47
2023-05-17T06:00:04.897Z,96750.28
2023-05-17T06:02:40.913Z,96758.97
2023-05-17T06:05:09.911Z,96757.16
2023-05-17T06:07:38.026Z,96759.84
2023-05-17T06:10:06.817Z,96771.44
2023-05-17T06:12:36.237Z,96771.44
2023-05-17T06:15:05.018Z,96781.28
2023-05-17T06:17:33.120Z,96781.41
2023-05-17T06:20:01.433Z,96786.75
2023-05-17T06:22:29.490Z,96784.09
2023-05-17T06:24:57.855Z,96789.53
2023-05-17T06:27:26.433Z,96803.03
2023-05-17T06:29:56.006Z,96805.72
2023-05-17T06:32:24.053Z,96805.72
2023-05-17T06:34:52.104Z,96813.78
2023-05-17T06:37:20.172Z,96820.13
2023-05-17T06:39:55.664Z,96831.78
2023-05-17T06:42:28.002Z,96828.47
2023-05-17T06:44:57.418Z,96830.41
2023-05-17T06:47:25.655Z,96834.88
2023-05-17T06:49:55.985Z,96841.00
2023-05-17T06:52:24.097Z,96841.97
2023-05-17T06:54:52.226Z,96851.84
2023-05-17T06:57:20.330Z,96856.31
2023-05-17T06:59:48.362Z,96860.94
2023-05-17T07:02:17.858Z,96854.72
2023-05-17T07:04:45.910Z,96852.91
2023-05-17T07:07:14.060Z,96850.22
2023-05-17T07:09:42.085Z,96859.22
2023-05-17T07:12:10.354Z,96865.44
2023-05-17T07:14:39.556Z,96868.13
2023-05-17T07:17:07.638Z,96865.44
2023-05-17T07:19:37.194Z,96873.59
2023-05-17T07:22:05.866Z,96882.50
2023-05-17T07:24:37.939Z,96879.94
2023-05-17T07:27:06.606Z,96874.56
2023-05-17T07:29:34.692Z,96872.72
2023-05-17T07:32:02.719Z,96873.59
2023-05-17T07:34:31.661Z,96872.72
2023-05-17T07:37:01.061Z,96876.25
2023-05-17T07:39:29.164Z,96878.06
2023-05-17T07:41:57.206Z,96875.50
2023-05-17T07:44:25.276Z,96880.88
2023-05-17T07:46:53.372Z,96880.00
2023-05-17T07:49:21.567Z,96889.03
2023-05-17T07:51:49.652Z,96889.88
2023-05-17T07:54:26.929Z,96890.72
2023-05-17T07:56:55.424Z,96888.03
2023-05-17T07:59:24.506Z,96881.94
2023-05-17T08:01:52.616Z,96893.50
2023-05-17T08:04:20.748Z,96885.47
2023-05-17T08:06:50.097Z,96898.00
2023-05-17T08:09:18.220Z,96906.91
2023-05-17T08:11:47.965Z,96904.34
2023-05-17T08:14:16.151Z,96916.00
2023-05-17T08:16:44.436Z,96915.19
2023-05-17T08:19:14.183Z,96919.56
2023-05-17T08:21:42.466Z,96925.78
2023-05-17T08:24:13.011Z,96923.00
2023-05-17T08:26:41.561Z,96927.59
2023-05-17T08:29:10.946Z,96931.16
2023-05-17T08:31:38.992Z,96928.47
2023-05-17T08:34:07.167Z,96937.28
2023-05-17T08:36:35.548Z,96936.28
2023-05-17T08:39:04.251Z,96938.03
2023-05-17T08:41:32.856Z,96936.22
2023-05-17T08:44:00.992Z,96936.09
2023-05-17T08:46:31.460Z,96933.56
2023-05-17T08:49:02.088Z,96935.81
2023-05-17T08:51:30.462Z,96941.16
2023-05-17T08:53:58.498Z,96943.16
2023-05-17T08:56:27.159Z,96951.44
2023-05-17T08:58:57.932Z,96953.34
2023-05-17T09:01:27.923Z,96961.38
2023-05-17T09:03:58.794Z,96963.19
2023-05-17T09:06:26.873Z,96960.75
2023-05-17T09:08:55.780Z,96960.75
2023-05-17T09:11:28.109Z,96959.88
2023-05-17T09:13:59.426Z,96963.50
2023-05-17T09:16:29.143Z,96953.75
2023-05-17T09:18:59.153Z,96961.78
2023-05-17T09:21:27.696Z,96956.44
2023-05-17T09:26:27.087Z,96953.75
2023-05-17T09:28:55.123Z,96955.56
2023-05-17T09:31:23.184Z,96954.69
2023-05-17T09:33:51.716Z,96960.94
2023-05-17T09:36:21.689Z,96965.41
2023-05-17T09:38:56.401Z,96966.41
2023-05-17T09:41:27.390Z,96965.53
2023-05-17T09:43:57.872Z,96970.03
2023-05-17T09:46:25.916Z,96974.53
2023-05-17T09:48:57.324Z,96975.31
2023-05-17T09:51:36.556Z,96971.25
2023-05-17T09:54:04.707Z,96974.38
2023-05-17T09:56:32.818Z,96967.75
2023-05-17T09:59:02.196Z,96969.25
2023-05-17T10:01:30.990Z,96974.22
2023-05-17T10:04:01.209Z,96981.09
2023-05-17T10:06:44.712Z,96980.91
2023-05-17T10:09:15.935Z,96985.94
2023-05-17T10:11:44.734Z,96996.56
2023-05-17T10:14:13.701Z,96996.22
2023-05-17T10:16:43.100Z,96999.31
2023-05-17T10:19:11.544Z,96998.56
2023-05-17T10:21:39.752Z,96991.56
2023-05-17T10:24:08.118Z,96992.63
2023-05-17T10:26:38.575Z,96992.75
2023-05-17T10:29:06.650Z,97000.03
2023-05-17T10:31:36.532Z,96996.59
2023-05-17T10:34:05.756Z,97004.63
2023-05-17T10:36:34.397Z,97010.09
2023-05-17T10:39:02.478Z,97006.66
2023-05-17T10:41:32.954Z,96996.88
2023-05-17T10:44:02.715Z,97002.13
2023-05-17T10:46:30.912Z,96994.97
2023-05-17T10:49:00.383Z,97001.94
2023-05-17T10:51:31.311Z,97003.25
2023-05-17T10:54:18.423Z,97002.00
2023-05-17T10:56:49.840Z,97006.19
2023-05-17T10:59:23.205Z,97015.66
2023-05-17T11:01:55.595Z,97015.41
2023-05-17T11:04:26.136Z,97023.16
2023-05-17T11:06:55.996Z,97022.22
2023-05-17T11:09:24.931Z,97027.38
2023-05-17T11:12:08.387Z,97022.75
2023-05-17T11:14:49.991Z,97031.56
2023-05-17T11:17:18.969Z,97036.72
2023-05-17T11:20:13.393Z,97042.88
2023-05-17T11:22:42.832Z,97040.09
2023-05-17T11:25:12.470Z,97043.53
2023-05-17T11:27:45.975Z,97047.09
2023-05-17T11:30:24.587Z,97053.22
2023-05-17T11:32:53.885Z,97054.91
2023-05-17T11:35:25.186Z,97053.94
2023-05-17T11:37:53.506Z,97061.03
2023-05-17T11:40:28.837Z,97070.72
2023-05-17T11:43:12.513Z,97076.91
2023-05-17T11:45:46.213Z,97077.66
2023-05-17T11:48:14.560Z,97091.94
2023-05-17T11:50:42.686Z,97095.38
2023-05-17T11:53:11.077Z,97101.63
2023-05-17T11:55:39.833Z,97105.94
2023-05-17T11:58:09.075Z,97104.97
2023-05-17T12:00:38.836Z,97111.19
2023-05-17T12:03:18.344Z,97116.44
2023-05-17T12:05:47.383Z,97118.47
2023-05-17T12:08:16.806Z,97119.84
2023-05-17T12:10:51.839Z,97121.56
2023-05-17T12:13:19.971Z,97127.59
2023-05-17T12:15:53.693Z,97126.53
2023-05-17T12:18:23.227Z,97136.22
2023-05-17T12:20:55.552Z,97134.28
2023-05-17T12:23:33.062Z,97134.28
2023-05-17T12:26:08.449Z,97143.09
2023-05-17T12:28:37.414Z,97155.53
2023-05-17T12:31:06.687Z,97148.34
2023-05-17T12:33:37.505Z,97160.78
2023-05-17T12:36:06.268Z,97167.03
2023-05-17T12:38:34.308Z,97172.28
2023-05-17T12:41:02.593Z,97176.72
2023-05-17T12:43:31.911Z,97187.44
2023-05-17T12:46:07.472Z,97191.84
2023-05-17T12:48:37.426Z,97202.50
2023-05-17T12:51:11.706Z,97208.69
2023-05-17T12:53:40.324Z,97211.31
2023-05-17T12:56:08.778Z,97214.81
2023-05-17T12:58:37.467Z,97209.47
2023-05-17T13:01:07.461Z,97223.75
2023-05-17T13:03:37.137Z,97222.81
2023-05-17T13:06:06.451Z,97229.97
2023-05-17T13:08:34.551Z,97226.31
2023-05-17T13:11:12.751Z,97235.25
2023-05-17T13:13:40.850Z,97232.56
2023-05-17T13:16:08.925Z,97231.63
2023-05-17T13:18:51.307Z,97237.81
2023-05-17T13:21:19.808Z,97234.31
2023-05-17T13:23:48.670Z,97246.75
2023-05-17T13:26:17.244Z,97248.56
2023-05-17T13:28:45.316Z,97246.75
2023-05-17T13:31:13.476Z,97246.75
2023-05-17T13:33:41.654Z,97250.28
2023-05-17T13:36:12.184Z,97252.97
2023-05-17T13:38:40.271Z,97249.31
2023-05-17T13:41:09.198Z,97248.47
2023-05-17T13:43:37.231Z,97243.13
2023-05-17T13:46:05.258Z,97241.25
2023-05-17T13:48:33.326Z,97252.00
2023-05-17T13:51:02.005Z,97259.09
2023-05-17T13:53:31.413Z,97253.75
2023-05-17T13:55:59.457Z,97260.94
2023-05-17T13:58:27.475Z,97259.97
2023-05-17T14:00:55.536Z,97263.50
2023-05-17T14:03:23.642Z,97269.75
2023-05-17T14:05:52.875Z,97263.50
2023-05-17T14:08:21.278Z,97270.59
2023-05-17T14:10:50.726Z,97259.88
2023-05-17T14:13:18.808Z,97271.47
2023-05-17T14:15:46.853Z,97266.09
2023-05-17T14:18:15.018Z,97266.94
2023-05-17T14:20:43.108Z,97265.25
2023-05-17T14:23:11.126Z,97266.94
2023-05-17T14:25:39.970Z,97259.75
2023-05-17T14:28:09.326Z,97265.13
2023-05-17T14:30:37.424Z,97264.25
2023-05-17T14:33:05.653Z,97273.19
2023-05-17T14:35:33.773Z,97276.91
2023-05-17T14:38:01.768Z,97270.81
2023-05-17T14:40:30.074Z,97271.72
2023-05-17T14:42:58.203Z,97269.81
2023-05-17T14:45:27.660Z,97272.97
2023-05-17T14:47:55.921Z,97277.16
2023-05-17T14:50:23.997Z,97269.78
2023-05-17T14:52:52.039Z,97273.13
2023-05-17T14:55:20.245Z,97272.16
2023-05-17T14:57:48.336Z,97273.81
2023-05-17T15:00:17.608Z,97268.31
2023-05-17T15:02:47.304Z,97272.72
2023-05-17T15:05:15.380Z,97269.09
2023-05-17T15:07:43.506Z,97261.78
2023-05-17T15:10:13.081Z,97262.66
2023-05-17T15:12:41.067Z,97265.25
2023-05-17T15:15:10.382Z,97258.91
2023-05-17T15:17:38.438Z,97263.31
2023-05-17T15:20:09.515Z,97260.63
2023-05-17T15:22:37.772Z,97260.53
2023-05-17T15:25:06.571Z,97256.03
2023-05-17T15:27:34.622Z,97260.41
2023-05-17T15:30:02.919Z,97251.53
2023-05-17T15:32:31.162Z,97260.41
2023-05-17T15:34:59.411Z,97260.34
2023-05-17T15:37:28.866Z,97255.81
2023-05-17T15:39:57.179Z,97267.41
2023-05-17T15:42:25.171Z,97256.69
2023-05-17T15:44:53.161Z,97251.31
2023-05-17T15:47:23.907Z,97252.16
2023-05-17T15:49:57.833Z,97251.19
2023-05-17T15:52:25.966Z,97253.88
2023-05-17T15:54:55.296Z,97252.06
2023-05-17T15:57:23.383Z,97246.69
2023-05-17T15:59:51.351Z,97252.94
2023-05-17T16:02:19.630Z,97259.16
2023-05-17T16:04:47.680Z,97258.31
2023-05-17T16:07:15.788Z,97264.44
2023-05-17T16:09:43.804Z,97260.88
2023-05-17T16:12:13.188Z,97268.00
2023-05-17T16:14:41.244Z,97261.63
2023-05-17T16:17:09.311Z,97254.44
2023-05-17T16:19:37.407Z,97258.84
2023-05-17T16:22:05.990Z,97264.13
2023-05-17T16:24:33.996Z,97265.84
2023-05-17T16:27:03.767Z,97273.78
2023-05-17T16:29:39.750Z,97278.09
2023-05-17T16:32:08.674Z,97269.09
2023-05-17T16:34:36.677Z,97272.53
2023-05-17T16:37:05.209Z,97270.63
2023-05-17T16:39:33.526Z,97272.44
2023-05-17T16:42:01.588Z,97269.53
2023-05-17T16:44:29.625Z,97274.00
2023-05-17T16:46:59.126Z,97274.84
2023-05-17T16:49:27.207Z,97286.44
2023-05-17T16:51:55.215Z,97289.06
2023-05-17T16:54:23.238Z,97287.19
2023-05-17T16:56:51.382Z,97296.13
2023-05-17T16:59:19.390Z,97293.34
2023-05-17T17:01:47.446Z,97295.94
2023-05-17T17:04:17.103Z,97292.38
2023-05-17T17:06:45.182Z,97302.16
2023-05-17T17:09:13.197Z,97301.19
2023-05-17T17:11:41.238Z,97294.84
2023-05-17T17:14:09.347Z,97306.56
2023-05-17T17:16:37.448Z,97312.13
2023-05-17T17:19:05.569Z,97314.28
2023-05-17T17:21:36.686Z,97312.75
2023-05-17T17:24:05.640Z,97321.75
2023-05-17T17:26:35.263Z,97318.78
2023-05-17T17:29:04.010Z,97325.69
2023-05-17T17:31:32.205Z,97319.25
2023-05-17T17:34:00.345Z,97332.56
2023-05-17T17:36:28.737Z,97331.63
2023-05-17T17:38:58.214Z,97336.03
2023-05-17T17:41:26.249Z,97327.84
2023-05-17T17:43:54.382Z,97327.84
2023-05-17T17:46:22.644Z,97337.66
2023-05-17T17:48:50.845Z,97333.16
2023-05-17T17:51:18.913Z,97337.84
2023-05-17T17:53:48.851Z,97339.16
2023-05-17T17:56:18.217Z,97341.84
2023-05-17T17:58:46.509Z,97340.59
2023-05-17T18:01:14.528Z,97336.78
2023-05-17T18:03:42.614Z,97333.63
2023-05-17T18:06:10.623Z,97346.72
2023-05-17T18:08:38.711Z,97342.03
2023-05-17T18:11:06.761Z,97340.00
2023-05-17T18:13:36.384Z,97346.16
2023-05-17T18:16:04.699Z,97352.28
2023-05-17T18:18:32.795Z,97350.34
2023-05-17T18:21:00.878Z,97348.53
2023-05-17T18:23:28.905Z,97348.53
2023-05-17T18:25:57.036Z,97344.88
2023-05-17T18:28:38.238Z,97344.88
2023-05-17T18:31:11.733Z,97352.00
2023-05-17T18:33:39.797Z,97358.19
2023-05-17T18:36:08.101Z,97361.75
2023-05-17T18:38:36.519Z,97358.13
2023-05-17T18:41:04.568Z,97359.84
2023-05-17T18:43:32.674Z,97365.84
2023-05-17T18:46:00.715Z,97369.31
2023-05-17T18:48:30.106Z,97369.31
2023-05-17T18:50:59.899Z,97374.59
2023-05-17T18:53:29.300Z,97371.06
2023-05-17T18:55:59.609Z,97377.19
2023-05-17T18:58:27.603Z,97379.00
2023-05-17T19:00:56.067Z,97394.16
2023-05-17T19:03:24.457Z,97399.53
2023-05-17T19:05:53.894Z,97398.56
2023-05-17T19:08:21.908Z,97395.00
2023-05-17T19:10:50.185Z,97406.50
2023-05-17T19:13:18.209Z,97409.19
2023-05-17T19:15:46.600Z,97411.88
2023-05-17T19:18:14.730Z,97414.56
2023-05-17T19:20:42.841Z,97411.06
2023-05-17T19:23:12.269Z,97418.16
2023-05-17T19:25:40.297Z,97422.63
2023-05-17T19:28:08.380Z,97430.69
2023-05-17T19:30:36.579Z,97426.22
2023-05-17T19:33:04.939Z,97436.03
2023-05-17T19:35:33.168Z,97429.78
2023-05-17T19:38:01.222Z,97435.16
2023-05-17T19:40:31.443Z,97430.66
2023-05-17T19:43:01.644Z,97437.72
2023-05-17T19:45:29.871Z,97443.97
2023-05-17T19:47:57.958Z,97444.84
2023-05-17T19:50:26.024Z,97445.78
2023-05-17T19:52:54.824Z,97447.53
2023-05-17T19:55:24.674Z,97440.41
2023-05-17T19:57:54.107Z,97442.16
2023-05-17T20:00:22.368Z,97450.22
2023-05-17T20:02:50.509Z,97453.75
2023-05-17T20:05:18.587Z,97447.53
2023-05-17T20:07:46.873Z,97455.59
2023-05-17T20:10:14.912Z,97452.91
2023-05-17T20:12:43.886Z,97452.78
2023-05-17T20:15:13.459Z,97457.28
2023-05-17T20:17:42.149Z,97458.28
2023-05-17T20:20:10.704Z,97461.78
2023-05-17T20:22:41.062Z,97468.03
2023-05-17T20:25:09.262Z,97472.53
2023-05-17T20:27:37.292Z,97468.91
2023-05-17T20:30:06.158Z,97467.16
2023-05-17T20:32:35.785Z,97464.47
2023-05-17T20:35:03.860Z,97466.34
2023-05-17T20:37:31.919Z,97460.09
2023-05-17T20:40:00.402Z,97475.34
2023-05-17T20:42:29.076Z,97483.41
2023-05-17T20:44:57.854Z,97482.53
2023-05-17T20:47:26.143Z,97476.31
2023-05-17T20:49:56.170Z,97479.84
2023-05-17T20:52:38.172Z,97490.56
2023-05-17T20:55:09.055Z,97495.13
2023-05-17T20:57:37.122Z,97496.06
2023-05-17T21:00:08.234Z,97492.44
2023-05-17T21:02:36.434Z,97494.31
2023-05-17T21:05:06.122Z,97497.84
2023-05-17T21:07:34.962Z,97499.69
2023-05-17T21:10:03.008Z,97497.94
2023-05-17T21:12:31.054Z,97502.44
2023-05-17T21:15:15.157Z,97499.75
2023-05-17T21:17:44.469Z,97487.31
2023-05-17T21:20:14.752Z,97503.41
2023-05-17T21:22:42.827Z,97499.88
2023-05-17T21:25:11.325Z,97502.53
2023-05-17T21:27:39.673Z,97504.38
2023-05-17T21:30:08.921Z,97508.91
2023-05-17T21:32:37.121Z,97510.72
2023-05-17T21:35:05.532Z,97513.41
2023-05-17T21:37:37.072Z,97512.63
2023-05-17T21:40:05.886Z,97516.25
2023-05-17T21:42:34.009Z,97512.03
2023-05-17T21:45:02.098Z,97513.94
2023-05-17T21:47:30.128Z,97513.00
2023-05-17T21:49:58.346Z,97514.06
2023-05-17T21:52:26.388Z,97520.31
2023-05-17T21:54:55.925Z,97519.63
2023-05-17T21:57:24.038Z,97519.63
2023-05-17T21:59:52.106Z,97510.72
2023-05-17T22:02:20.759Z,97517.03
2023-05-17T22:04:48.820Z,97520.56
2023-05-17T22:07:16.889Z,97516.19
2023-05-17T22:09:45.584Z,97510.88
2023-05-17T22:12:15.105Z,97509.16
2023-05-17T22:14:45.438Z,97511.09
2023-05-17T22:17:13.545Z,97513.78
2023-05-17T22:19:41.769Z,97508.41
2023-05-17T22:22:09.861Z,97508.56
2023-05-17T22:24:37.960Z,97509.44
2023-05-17T22:27:06.339Z,97503.19
2023-05-17T22:29:38.498Z,97508.56
2023-05-17T22:32:07.032Z,97513.94
2023-05-17T22:34:35.315Z,97515.84
2023-05-17T22:37:03.763Z,97514.16
2023-05-17T22:39:31.854Z,97518.53
2023-05-17T22:42:00.103Z,97517.78
2023-05-17T22:44:28.151Z,97510.59
2023-05-17T22:46:57.816Z,97513.38
2023-05-17T22:49:26.061Z,97518.66
2023-05-17T22:51:54.471Z,97503.50
2023-05-17T22:54:23.217Z,97507.03
2023-05-17T22:56:51.288Z,97513.38
2023-05-17T22:59:19.393Z,97515.19
2023-05-17T23:01:47.526Z,97511.63
2023-05-17T23:04:17.051Z,97511.75
2023-05-17T23:06:45.156Z,97506.25
2023-05-17T23:09:13.755Z,97504.56
2023-05-17T23:11:41.817Z,97504.56
2023-05-17T23:14:11.363Z,97505.50
2023-05-17T23:16:39.489Z,97501.97
2023-05-17T23:19:07.574Z,97502.81
2023-05-17T23:21:37.510Z,97504.66
2023-05-17T23:24:06.700Z,97496.69
2023-05-17T23:26:34.806Z,97499.47
2023-05-17T23:29:03.492Z,97509.31
2023-05-17T23:31:31.751Z,97498.69
2023-05-17T23:33:59.814Z,97496.88
2023-05-17T23:36:27.922Z,97491.50
2023-05-17T23:38:57.411Z,97492.38
2023-05-17T23:41:26.126Z,97479.91
2023-05-17T23:43:54.284Z,97485.28
2023-05-17T23:46:22.554Z,97475.56
2023-05-17T23:48:51.216Z,97473.75
2023-05-17T23:51:20.146Z,97483.63
2023-05-17T23:53:49.199Z,97482.88
2023-05-17T23:56:18.671Z,97473.88
2023-05-17T23:58:46.820Z,97477.50
